sensor_id;sensor_type;location;lat;lon;timestamp;P1;durP1;ratioP1;P2;durP2;ratioP2
82950;SDS011;72737;53.332;6.514;2023-12-04T00:01:30;6.95;;;3.67;;
82950;SDS011;72737;53.332;6.514;2023-12-04T00:03:57;6.75;;;3.60;;
82950;SDS011;72737;53.332;6.514;2023-12-04T00:06:24;6.35;;;3.40;;
82950;SDS011;72737;53.332;6.514;2023-12-04T00:08:49;7.30;;;4.07;;
82950;SDS011;72737;53.332;6.514;2023-12-04T00:11:16;7.40;;;4.03;;
82950;SDS011;72737;53.332;6.514;2023-12-04T00:13:42;8.05;;;4.20;;
82950;SDS011;72737;53.332;6.514;2023-12-04T00:16:07;7.13;;;4.03;;
82950;SDS011;72737;53.332;6.514;2023-12-04T00:18:33;8.48;;;3.85;;
82950;SDS011;72737;53.332;6.514;2023-12-04T00:20:59;7.03;;;3.70;;
82950;SDS011;72737;53.332;6.514;2023-12-04T00:23:24;6.50;;;3.65;;
82950;SDS011;72737;53.332;6.514;2023-12-04T00:25:49;7.35;;;4.00;;
82950;SDS011;72737;53.332;6.514;2023-12-04T00:28:15;6.53;;;3.58;;
82950;SDS011;72737;53.332;6.514;2023-12-04T00:30:40;7.00;;;3.80;;
82950;SDS011;72737;53.332;6.514;2023-12-04T00:33:06;7.10;;;3.83;;
82950;SDS011;72737;53.332;6.514;2023-12-04T00:35:32;7.05;;;3.88;;
82950;SDS011;72737;53.332;6.514;2023-12-04T00:37:57;7.35;;;4.07;;
82950;SDS011;72737;53.332;6.514;2023-12-04T00:40:25;8.23;;;4.10;;
82950;SDS011;72737;53.332;6.514;2023-12-04T00:42:51;7.70;;;4.50;;
82950;SDS011;72737;53.332;6.514;2023-12-04T00:45:16;7.05;;;3.92;;
82950;SDS011;72737;53.332;6.514;2023-12-04T00:47:42;7.20;;;3.78;;
82950;SDS011;72737;53.332;6.514;2023-12-04T00:50:07;8.55;;;4.13;;
82950;SDS011;72737;53.332;6.514;2023-12-04T00:52:33;7.32;;;4.13;;
82950;SDS011;72737;53.332;6.514;2023-12-04T00:54:59;7.90;;;4.32;;
82950;SDS011;72737;53.332;6.514;2023-12-04T00:57:25;7.82;;;4.03;;
82950;SDS011;72737;53.332;6.514;2023-12-04T00:59:50;7.35;;;4.18;;
82950;SDS011;72737;53.332;6.514;2023-12-04T01:02:16;7.13;;;4.10;;
82950;SDS011;72737;53.332;6.514;2023-12-04T01:04:51;7.75;;;4.13;;
82950;SDS011;72737;53.332;6.514;2023-12-04T01:07:17;7.53;;;4.13;;
82950;SDS011;72737;53.332;6.514;2023-12-04T01:09:42;7.25;;;4.03;;
82950;SDS011;72737;53.332;6.514;2023-12-04T01:12:07;7.05;;;3.90;;
82950;SDS011;72737;53.332;6.514;2023-12-04T01:14:33;7.03;;;4.00;;
82950;SDS011;72737;53.332;6.514;2023-12-04T01:16:58;8.32;;;4.20;;
82950;SDS011;72737;53.332;6.514;2023-12-04T01:19:25;8.13;;;4.22;;
82950;SDS011;72737;53.332;6.514;2023-12-04T01:21:59;7.55;;;4.50;;
82950;SDS011;72737;53.332;6.514;2023-12-04T01:24:25;7.75;;;4.32;;
82950;SDS011;72737;53.332;6.514;2023-12-04T01:26:51;8.82;;;4.43;;
82950;SDS011;72737;53.332;6.514;2023-12-04T01:29:17;6.97;;;3.88;;
82950;SDS011;72737;53.332;6.514;2023-12-04T01:31:42;7.10;;;4.10;;
82950;SDS011;72737;53.332;6.514;2023-12-04T01:34:08;7.90;;;3.90;;
82950;SDS011;72737;53.332;6.514;2023-12-04T01:36:33;8.07;;;4.40;;
82950;SDS011;72737;53.332;6.514;2023-12-04T01:38:59;9.00;;;4.10;;
82950;SDS011;72737;53.332;6.514;2023-12-04T01:41:25;7.18;;;3.92;;
82950;SDS011;72737;53.332;6.514;2023-12-04T01:43:50;7.80;;;4.03;;
82950;SDS011;72737;53.332;6.514;2023-12-04T01:46:16;7.45;;;4.30;;
82950;SDS011;72737;53.332;6.514;2023-12-04T01:48:44;7.13;;;4.25;;
82950;SDS011;72737;53.332;6.514;2023-12-04T01:51:10;7.97;;;4.38;;
82950;SDS011;72737;53.332;6.514;2023-12-04T01:53:38;7.22;;;3.90;;
82950;SDS011;72737;53.332;6.514;2023-12-04T01:56:05;7.35;;;3.92;;
82950;SDS011;72737;53.332;6.514;2023-12-04T01:58:31;7.38;;;4.10;;
82950;SDS011;72737;53.332;6.514;2023-12-04T02:00:58;7.15;;;4.00;;
82950;SDS011;72737;53.332;6.514;2023-12-04T02:03:23;7.32;;;4.32;;
82950;SDS011;72737;53.332;6.514;2023-12-04T02:05:49;7.15;;;4.13;;
82950;SDS011;72737;53.332;6.514;2023-12-04T02:08:16;8.15;;;4.65;;
82950;SDS011;72737;53.332;6.514;2023-12-04T02:10:42;7.22;;;4.10;;
82950;SDS011;72737;53.332;6.514;2023-12-04T02:13:07;6.35;;;3.53;;
82950;SDS011;72737;53.332;6.514;2023-12-04T02:15:33;7.18;;;4.00;;
82950;SDS011;72737;53.332;6.514;2023-12-04T02:18:05;7.05;;;3.92;;
82950;SDS011;72737;53.332;6.514;2023-12-04T02:20:33;7.47;;;4.10;;
82950;SDS011;72737;53.332;6.514;2023-12-04T02:23:00;7.03;;;3.80;;
82950;SDS011;72737;53.332;6.514;2023-12-04T02:25:26;7.10;;;4.13;;
82950;SDS011;72737;53.332;6.514;2023-12-04T02:27:52;6.60;;;4.00;;
82950;SDS011;72737;53.332;6.514;2023-12-04T02:33:26;7.15;;;3.95;;
82950;SDS011;72737;53.332;6.514;2023-12-04T02:35:52;6.70;;;3.78;;
82950;SDS011;72737;53.332;6.514;2023-12-04T02:38:29;7.18;;;4.10;;
82950;SDS011;72737;53.332;6.514;2023-12-04T02:41:14;7.68;;;4.10;;
82950;SDS011;72737;53.332;6.514;2023-12-04T02:47:20;7.03;;;3.72;;
82950;SDS011;72737;53.332;6.514;2023-12-04T02:50:02;7.25;;;4.07;;
82950;SDS011;72737;53.332;6.514;2023-12-04T02:52:31;6.75;;;3.78;;
82950;SDS011;72737;53.332;6.514;2023-12-04T02:54:59;7.50;;;4.30;;
82950;SDS011;72737;53.332;6.514;2023-12-04T02:57:25;6.95;;;3.80;;
82950;SDS011;72737;53.332;6.514;2023-12-04T03:00:02;6.45;;;3.72;;
82950;SDS011;72737;53.332;6.514;2023-12-04T03:08:21;7.30;;;3.75;;
82950;SDS011;72737;53.332;6.514;2023-12-04T03:10:46;6.53;;;3.47;;
82950;SDS011;72737;53.332;6.514;2023-12-04T03:13:12;6.85;;;3.83;;
82950;SDS011;72737;53.332;6.514;2023-12-04T03:15:37;6.60;;;3.50;;
82950;SDS011;72737;53.332;6.514;2023-12-04T03:18:02;6.55;;;4.18;;
82950;SDS011;72737;53.332;6.514;2023-12-04T03:20:29;7.50;;;4.20;;
82950;SDS011;72737;53.332;6.514;2023-12-04T03:22:55;7.65;;;3.65;;
82950;SDS011;72737;53.332;6.514;2023-12-04T03:27:50;6.30;;;3.58;;
82950;SDS011;72737;53.332;6.514;2023-12-04T03:30:15;6.18;;;3.53;;
82950;SDS011;72737;53.332;6.514;2023-12-04T03:32:41;6.85;;;3.70;;
82950;SDS011;72737;53.332;6.514;2023-12-04T03:35:15;7.55;;;3.75;;
82950;SDS011;72737;53.332;6.514;2023-12-04T03:37:41;6.75;;;3.90;;
82950;SDS011;72737;53.332;6.514;2023-12-04T03:40:06;7.18;;;4.00;;
82950;SDS011;72737;53.332;6.514;2023-12-04T03:42:34;5.97;;;3.10;;
82950;SDS011;72737;53.332;6.514;2023-12-04T03:44:59;6.38;;;3.63;;
82950;SDS011;72737;53.332;6.514;2023-12-04T03:47:26;7.00;;;3.85;;
82950;SDS011;72737;53.332;6.514;2023-12-04T03:49:52;6.40;;;3.70;;
82950;SDS011;72737;53.332;6.514;2023-12-04T03:52:18;6.30;;;3.60;;
82950;SDS011;72737;53.332;6.514;2023-12-04T03:54:43;5.97;;;3.20;;
82950;SDS011;72737;53.332;6.514;2023-12-04T03:57:08;6.70;;;3.60;;
82950;SDS011;72737;53.332;6.514;2023-12-04T03:59:40;6.22;;;3.33;;
82950;SDS011;72737;53.332;6.514;2023-12-04T04:02:05;7.75;;;3.55;;
82950;SDS011;72737;53.332;6.514;2023-12-04T04:04:31;6.35;;;3.63;;
82950;SDS011;72737;53.332;6.514;2023-12-04T04:06:57;6.13;;;3.30;;
82950;SDS011;72737;53.332;6.514;2023-12-04T04:09:22;6.00;;;3.35;;
82950;SDS011;72737;53.332;6.514;2023-12-04T04:11:48;6.38;;;3.50;;
82950;SDS011;72737;53.332;6.514;2023-12-04T04:14:13;6.10;;;3.45;;
82950;SDS011;72737;53.332;6.514;2023-12-04T04:16:39;6.32;;;3.60;;
82950;SDS011;72737;53.332;6.514;2023-12-04T04:19:06;6.72;;;3.50;;
82950;SDS011;72737;53.332;6.514;2023-12-04T04:21:31;6.43;;;3.60;;
82950;SDS011;72737;53.332;6.514;2023-12-04T04:23:57;6.75;;;3.55;;
82950;SDS011;72737;53.332;6.514;2023-12-04T04:26:22;6.05;;;3.30;;
82950;SDS011;72737;53.332;6.514;2023-12-04T04:28:48;6.10;;;3.40;;
82950;SDS011;72737;53.332;6.514;2023-12-04T04:31:14;6.72;;;3.70;;
82950;SDS011;72737;53.332;6.514;2023-12-04T04:33:40;6.43;;;3.35;;
82950;SDS011;72737;53.332;6.514;2023-12-04T04:36:08;7.90;;;3.72;;
82950;SDS011;72737;53.332;6.514;2023-12-04T04:38:34;6.50;;;3.42;;
82950;SDS011;72737;53.332;6.514;2023-12-04T04:41:01;5.80;;;3.20;;
82950;SDS011;72737;53.332;6.514;2023-12-04T04:43:26;5.97;;;3.38;;
82950;SDS011;72737;53.332;6.514;2023-12-04T04:45:53;6.50;;;3.58;;
82950;SDS011;72737;53.332;6.514;2023-12-04T04:48:18;6.43;;;3.40;;
82950;SDS011;72737;53.332;6.514;2023-12-04T04:50:44;6.55;;;3.65;;
82950;SDS011;72737;53.332;6.514;2023-12-04T04:53:10;6.57;;;3.58;;
82950;SDS011;72737;53.332;6.514;2023-12-04T04:55:36;6.82;;;3.63;;
82950;SDS011;72737;53.332;6.514;2023-12-04T04:58:02;5.93;;;3.10;;
82950;SDS011;72737;53.332;6.514;2023-12-04T05:00:27;7.10;;;3.55;;
82950;SDS011;72737;53.332;6.514;2023-12-04T05:02:52;6.55;;;3.60;;
82950;SDS011;72737;53.332;6.514;2023-12-04T05:05:20;6.03;;;3.28;;
82950;SDS011;72737;53.332;6.514;2023-12-04T05:07:45;6.25;;;3.58;;
82950;SDS011;72737;53.332;6.514;2023-12-04T05:10:11;6.05;;;3.28;;
82950;SDS011;72737;53.332;6.514;2023-12-04T05:12:36;6.53;;;3.38;;
82950;SDS011;72737;53.332;6.514;2023-12-04T05:15:02;6.25;;;3.50;;
82950;SDS011;72737;53.332;6.514;2023-12-04T05:17:28;6.22;;;3.10;;
82950;SDS011;72737;53.332;6.514;2023-12-04T05:19:54;6.00;;;3.10;;
82950;SDS011;72737;53.332;6.514;2023-12-04T05:22:30;6.57;;;3.28;;
82950;SDS011;72737;53.332;6.514;2023-12-04T05:24:55;5.90;;;3.30;;
82950;SDS011;72737;53.332;6.514;2023-12-04T05:27:21;6.07;;;3.20;;
82950;SDS011;72737;53.332;6.514;2023-12-04T05:29:46;6.13;;;3.28;;
82950;SDS011;72737;53.332;6.514;2023-12-04T05:32:12;6.38;;;3.35;;
82950;SDS011;72737;53.332;6.514;2023-12-04T05:34:38;6.57;;;3.08;;
82950;SDS011;72737;53.332;6.514;2023-12-04T05:37:03;5.90;;;3.20;;
82950;SDS011;72737;53.332;6.514;2023-12-04T05:39:29;6.25;;;3.50;;
82950;SDS011;72737;53.332;6.514;2023-12-04T05:41:56;6.45;;;3.35;;
82950;SDS011;72737;53.332;6.514;2023-12-04T05:44:28;6.50;;;3.47;;
82950;SDS011;72737;53.332;6.514;2023-12-04T05:46:53;6.03;;;3.05;;
82950;SDS011;72737;53.332;6.514;2023-12-04T05:49:19;7.40;;;3.35;;
82950;SDS011;72737;53.332;6.514;2023-12-04T05:51:44;7.70;;;3.38;;
82950;SDS011;72737;53.332;6.514;2023-12-04T05:54:11;10.15;;;3.40;;
82950;SDS011;72737;53.332;6.514;2023-12-04T05:56:36;7.75;;;3.28;;
82950;SDS011;72737;53.332;6.514;2023-12-04T05:59:21;8.80;;;3.40;;
82950;SDS011;72737;53.332;6.514;2023-12-04T06:01:48;6.43;;;3.20;;
82950;SDS011;72737;53.332;6.514;2023-12-04T06:04:14;6.32;;;3.13;;
82950;SDS011;72737;53.332;6.514;2023-12-04T06:06:39;8.02;;;3.50;;
82950;SDS011;72737;53.332;6.514;2023-12-04T06:09:04;7.55;;;3.20;;
82950;SDS011;72737;53.332;6.514;2023-12-04T06:11:31;8.57;;;3.35;;
82950;SDS011;72737;53.332;6.514;2023-12-04T06:13:57;7.05;;;3.28;;
82950;SDS011;72737;53.332;6.514;2023-12-04T06:16:22;7.30;;;2.97;;
82950;SDS011;72737;53.332;6.514;2023-12-04T06:18:47;6.07;;;3.00;;
82950;SDS011;72737;53.332;6.514;2023-12-04T06:21:14;6.20;;;3.13;;
82950;SDS011;72737;53.332;6.514;2023-12-04T06:23:43;7.05;;;3.20;;
82950;SDS011;72737;53.332;6.514;2023-12-04T06:26:09;5.65;;;3.00;;
82950;SDS011;72737;53.332;6.514;2023-12-04T06:28:35;6.93;;;3.47;;
82950;SDS011;72737;53.332;6.514;2023-12-04T06:31:10;6.95;;;3.63;;
82950;SDS011;72737;53.332;6.514;2023-12-04T06:33:36;6.82;;;3.13;;
82950;SDS011;72737;53.332;6.514;2023-12-04T06:36:02;6.05;;;2.95;;
82950;SDS011;72737;53.332;6.514;2023-12-04T06:38:31;5.93;;;3.20;;
82950;SDS011;72737;53.332;6.514;2023-12-04T06:41:00;6.18;;;3.10;;
82950;SDS011;72737;53.332;6.514;2023-12-04T06:43:27;5.93;;;3.17;;
82950;SDS011;72737;53.332;6.514;2023-12-04T06:45:53;5.90;;;3.20;;
82950;SDS011;72737;53.332;6.514;2023-12-04T06:48:22;6.22;;;2.85;;
82950;SDS011;72737;53.332;6.514;2023-12-04T06:50:48;6.43;;;2.88;;
82950;SDS011;72737;53.332;6.514;2023-12-04T06:53:13;7.40;;;3.30;;
82950;SDS011;72737;53.332;6.514;2023-12-04T06:55:39;6.53;;;2.88;;
82950;SDS011;72737;53.332;6.514;2023-12-04T06:58:04;6.80;;;3.35;;
82950;SDS011;72737;53.332;6.514;2023-12-04T07:00:29;7.32;;;3.42;;
82950;SDS011;72737;53.332;6.514;2023-12-04T07:02:55;8.25;;;3.22;;
82950;SDS011;72737;53.332;6.514;2023-12-04T07:05:20;10.10;;;3.60;;
82950;SDS011;72737;53.332;6.514;2023-12-04T07:07:46;15.00;;;3.67;;
82950;SDS011;72737;53.332;6.514;2023-12-04T07:10:12;9.13;;;3.28;;
82950;SDS011;72737;53.332;6.514;2023-12-04T07:12:40;7.50;;;3.45;;
82950;SDS011;72737;53.332;6.514;2023-12-04T07:15:07;7.15;;;3.10;;
82950;SDS011;72737;53.332;6.514;2023-12-04T07:17:33;8.13;;;3.20;;
82950;SDS011;72737;53.332;6.514;2023-12-04T07:19:58;7.00;;;3.35;;
82950;SDS011;72737;53.332;6.514;2023-12-04T07:22:24;9.23;;;3.40;;
82950;SDS011;72737;53.332;6.514;2023-12-04T07:24:49;7.93;;;3.40;;
82950;SDS011;72737;53.332;6.514;2023-12-04T07:27:14;8.82;;;3.65;;
82950;SDS011;72737;53.332;6.514;2023-12-04T07:29:41;9.65;;;4.10;;
82950;SDS011;72737;53.332;6.514;2023-12-04T07:32:06;9.23;;;3.80;;
82950;SDS011;72737;53.332;6.514;2023-12-04T07:34:32;9.85;;;3.72;;
82950;SDS011;72737;53.332;6.514;2023-12-04T07:36:57;10.48;;;4.47;;
82950;SDS011;72737;53.332;6.514;2023-12-04T07:39:23;10.25;;;3.35;;
82950;SDS011;72737;53.332;6.514;2023-12-04T07:41:48;10.80;;;3.78;;
82950;SDS011;72737;53.332;6.514;2023-12-04T07:44:14;8.85;;;3.67;;
82950;SDS011;72737;53.332;6.514;2023-12-04T07:46:40;9.15;;;3.80;;
82950;SDS011;72737;53.332;6.514;2023-12-04T07:49:06;7.82;;;4.00;;
82950;SDS011;72737;53.332;6.514;2023-12-04T07:51:31;8.45;;;3.85;;
82950;SDS011;72737;53.332;6.514;2023-12-04T07:53:57;8.38;;;3.88;;
82950;SDS011;72737;53.332;6.514;2023-12-04T07:56:24;9.63;;;3.95;;
82950;SDS011;72737;53.332;6.514;2023-12-04T07:58:49;6.57;;;3.40;;
82950;SDS011;72737;53.332;6.514;2023-12-04T08:01:17;9.07;;;4.07;;
82950;SDS011;72737;53.332;6.514;2023-12-04T08:03:43;8.38;;;3.55;;
82950;SDS011;72737;53.332;6.514;2023-12-04T08:06:08;8.55;;;3.70;;
82950;SDS011;72737;53.332;6.514;2023-12-04T08:08:34;9.75;;;4.70;;
82950;SDS011;72737;53.332;6.514;2023-12-04T08:10:59;9.77;;;4.50;;
82950;SDS011;72737;53.332;6.514;2023-12-04T08:13:25;11.07;;;5.65;;
82950;SDS011;72737;53.332;6.514;2023-12-04T08:15:50;10.82;;;5.07;;
82950;SDS011;72737;53.332;6.514;2023-12-04T08:18:16;10.85;;;5.57;;
82950;SDS011;72737;53.332;6.514;2023-12-04T08:20:41;14.43;;;5.65;;
82950;SDS011;72737;53.332;6.514;2023-12-04T08:23:07;11.02;;;5.45;;
82950;SDS011;72737;53.332;6.514;2023-12-04T08:25:33;11.70;;;5.82;;
82950;SDS011;72737;53.332;6.514;2023-12-04T08:28:01;11.88;;;5.38;;
82950;SDS011;72737;53.332;6.514;2023-12-04T08:30:27;14.55;;;5.68;;
82950;SDS011;72737;53.332;6.514;2023-12-04T08:32:53;9.90;;;4.95;;
82950;SDS011;72737;53.332;6.514;2023-12-04T08:35:18;11.88;;;5.80;;
82950;SDS011;72737;53.332;6.514;2023-12-04T08:37:44;11.50;;;5.40;;
82950;SDS011;72737;53.332;6.514;2023-12-04T08:40:10;12.65;;;5.88;;
82950;SDS011;72737;53.332;6.514;2023-12-04T08:42:37;14.20;;;5.78;;
82950;SDS011;72737;53.332;6.514;2023-12-04T08:45:03;11.98;;;5.10;;
82950;SDS011;72737;53.332;6.514;2023-12-04T08:47:31;9.15;;;4.93;;
82950;SDS011;72737;53.332;6.514;2023-12-04T08:49:56;11.32;;;5.28;;
82950;SDS011;72737;53.332;6.514;2023-12-04T08:52:22;10.73;;;4.93;;
82950;SDS011;72737;53.332;6.514;2023-12-04T08:54:48;12.02;;;4.68;;
82950;SDS011;72737;53.332;6.514;2023-12-04T08:57:14;12.07;;;4.82;;
82950;SDS011;72737;53.332;6.514;2023-12-04T08:59:39;9.52;;;4.25;;
82950;SDS011;72737;53.332;6.514;2023-12-04T09:02:05;10.95;;;4.50;;
82950;SDS011;72737;53.332;6.514;2023-12-04T09:04:31;10.07;;;4.13;;
82950;SDS011;72737;53.332;6.514;2023-12-04T09:06:57;12.50;;;4.47;;
82950;SDS011;72737;53.332;6.514;2023-12-04T10:43:34;9.65;;;2.15;;
82950;SDS011;72737;53.332;6.514;2023-12-04T10:46:00;6.22;;;2.53;;
82950;SDS011;72737;53.332;6.514;2023-12-04T10:48:25;7.03;;;2.58;;
82950;SDS011;72737;53.332;6.514;2023-12-04T10:50:51;6.05;;;2.67;;
82950;SDS011;72737;53.332;6.514;2023-12-04T10:53:18;6.57;;;2.58;;
82950;SDS011;72737;53.332;6.514;2023-12-04T10:55:43;7.20;;;2.85;;
82950;SDS011;72737;53.332;6.514;2023-12-04T10:58:10;6.50;;;2.35;;
82950;SDS011;72737;53.332;6.514;2023-12-04T11:00:47;9.00;;;2.85;;
82950;SDS011;72737;53.332;6.514;2023-12-04T11:03:20;6.70;;;2.50;;
82950;SDS011;72737;53.332;6.514;2023-12-04T11:05:54;5.43;;;2.13;;
82950;SDS011;72737;53.332;6.514;2023-12-04T11:08:20;6.28;;;2.30;;
82950;SDS011;72737;53.332;6.514;2023-12-04T11:10:54;6.20;;;2.40;;
82950;SDS011;72737;53.332;6.514;2023-12-04T11:13:27;6.07;;;2.65;;
82950;SDS011;72737;53.332;6.514;2023-12-04T11:16:02;7.03;;;2.72;;
82950;SDS011;72737;53.332;6.514;2023-12-04T11:18:40;7.18;;;2.67;;
82950;SDS011;72737;53.332;6.514;2023-12-04T11:21:09;6.35;;;2.70;;
82950;SDS011;72737;53.332;6.514;2023-12-04T11:23:36;5.25;;;2.20;;
82950;SDS011;72737;53.332;6.514;2023-12-04T11:26:03;7.32;;;2.60;;
82950;SDS011;72737;53.332;6.514;2023-12-04T11:28:30;5.80;;;2.60;;
82950;SDS011;72737;53.332;6.514;2023-12-04T11:30:57;6.57;;;2.80;;
82950;SDS011;72737;53.332;6.514;2023-12-04T11:33:23;5.15;;;2.22;;
82950;SDS011;72737;53.332;6.514;2023-12-04T11:35:50;5.85;;;2.38;;
82950;SDS011;72737;53.332;6.514;2023-12-04T11:38:19;7.28;;;2.40;;
82950;SDS011;72737;53.332;6.514;2023-12-04T11:40:45;5.53;;;2.30;;
82950;SDS011;72737;53.332;6.514;2023-12-04T11:45:48;5.70;;;2.35;;
82950;SDS011;72737;53.332;6.514;2023-12-04T11:48:14;5.95;;;2.25;;
82950;SDS011;72737;53.332;6.514;2023-12-04T11:50:42;6.85;;;2.38;;
82950;SDS011;72737;53.332;6.514;2023-12-04T11:53:08;4.75;;;2.05;;
82950;SDS011;72737;53.332;6.514;2023-12-04T11:55:37;5.88;;;2.45;;
82950;SDS011;72737;53.332;6.514;2023-12-04T11:58:08;5.90;;;2.42;;
82950;SDS011;72737;53.332;6.514;2023-12-04T12:00:35;7.22;;;2.70;;
82950;SDS011;72737;53.332;6.514;2023-12-04T12:03:01;6.25;;;2.53;;
82950;SDS011;72737;53.332;6.514;2023-12-04T12:05:28;6.05;;;2.53;;
82950;SDS011;72737;53.332;6.514;2023-12-04T12:07:55;6.65;;;2.60;;
82950;SDS011;72737;53.332;6.514;2023-12-04T12:10:21;6.35;;;2.33;;
82950;SDS011;72737;53.332;6.514;2023-12-04T12:12:47;5.32;;;2.20;;
82950;SDS011;72737;53.332;6.514;2023-12-04T12:15:13;5.45;;;2.30;;
82950;SDS011;72737;53.332;6.514;2023-12-04T12:17:39;5.50;;;2.22;;
82950;SDS011;72737;53.332;6.514;2023-12-04T12:20:06;5.70;;;2.55;;
82950;SDS011;72737;53.332;6.514;2023-12-04T12:22:35;7.70;;;2.75;;
82950;SDS011;72737;53.332;6.514;2023-12-04T12:25:03;4.93;;;2.20;;
82950;SDS011;72737;53.332;6.514;2023-12-04T12:27:29;5.32;;;2.25;;
82950;SDS011;72737;53.332;6.514;2023-12-04T12:29:56;6.15;;;2.40;;
82950;SDS011;72737;53.332;6.514;2023-12-04T12:32:28;5.57;;;2.30;;
82950;SDS011;72737;53.332;6.514;2023-12-04T12:34:54;6.95;;;2.58;;
82950;SDS011;72737;53.332;6.514;2023-12-04T12:37:20;5.32;;;2.25;;
82950;SDS011;72737;53.332;6.514;2023-12-04T12:39:46;6.70;;;2.42;;
82950;SDS011;72737;53.332;6.514;2023-12-04T12:42:11;5.72;;;2.22;;
82950;SDS011;72737;53.332;6.514;2023-12-04T12:44:46;5.40;;;2.33;;
82950;SDS011;72737;53.332;6.514;2023-12-04T12:47:14;6.13;;;2.30;;
82950;SDS011;72737;53.332;6.514;2023-12-04T12:49:40;5.28;;;2.20;;
82950;SDS011;72737;53.332;6.514;2023-12-04T12:52:05;5.82;;;2.30;;
82950;SDS011;72737;53.332;6.514;2023-12-04T12:54:33;6.13;;;2.38;;
82950;SDS011;72737;53.332;6.514;2023-12-04T12:57:01;6.30;;;2.25;;
82950;SDS011;72737;53.332;6.514;2023-12-04T12:59:27;5.63;;;2.53;;
82950;SDS011;72737;53.332;6.514;2023-12-04T13:01:52;5.53;;;2.50;;
82950;SDS011;72737;53.332;6.514;2023-12-04T13:04:18;6.07;;;2.40;;
82950;SDS011;72737;53.332;6.514;2023-12-04T13:06:44;5.45;;;2.40;;
82950;SDS011;72737;53.332;6.514;2023-12-04T13:09:09;4.85;;;2.20;;
82950;SDS011;72737;53.332;6.514;2023-12-04T13:11:42;5.53;;;2.50;;
82950;SDS011;72737;53.332;6.514;2023-12-04T13:14:09;6.53;;;2.30;;
82950;SDS011;72737;53.332;6.514;2023-12-04T13:16:34;4.93;;;2.03;;
82950;SDS011;72737;53.332;6.514;2023-12-04T13:18:59;5.28;;;2.47;;
82950;SDS011;72737;53.332;6.514;2023-12-04T13:21:25;5.72;;;2.58;;
82950;SDS011;72737;53.332;6.514;2023-12-04T13:23:50;5.15;;;2.45;;
82950;SDS011;72737;53.332;6.514;2023-12-04T13:26:16;4.75;;;2.20;;
82950;SDS011;72737;53.332;6.514;2023-12-04T13:28:42;5.68;;;2.22;;
82950;SDS011;72737;53.332;6.514;2023-12-04T13:31:07;5.68;;;2.40;;
82950;SDS011;72737;53.332;6.514;2023-12-04T13:33:33;5.22;;;2.30;;
82950;SDS011;72737;53.332;6.514;2023-12-04T13:35:58;5.60;;;2.60;;
82950;SDS011;72737;53.332;6.514;2023-12-04T13:38:24;5.32;;;2.30;;
82950;SDS011;72737;53.332;6.514;2023-12-04T13:40:49;5.43;;;2.50;;
82950;SDS011;72737;53.332;6.514;2023-12-04T13:43:25;5.75;;;2.50;;
82950;SDS011;72737;53.332;6.514;2023-12-04T13:46:11;4.82;;;2.38;;
82950;SDS011;72737;53.332;6.514;2023-12-04T13:48:37;6.18;;;2.60;;
82950;SDS011;72737;53.332;6.514;2023-12-04T13:51:06;5.03;;;2.17;;
82950;SDS011;72737;53.332;6.514;2023-12-04T13:53:34;5.95;;;2.55;;
82950;SDS011;72737;53.332;6.514;2023-12-04T13:55:59;5.07;;;2.40;;
82950;SDS011;72737;53.332;6.514;2023-12-04T13:58:25;5.13;;;2.40;;
82950;SDS011;72737;53.332;6.514;2023-12-04T14:01:10;5.85;;;2.55;;
82950;SDS011;72737;53.332;6.514;2023-12-04T14:03:42;5.93;;;2.60;;
82950;SDS011;72737;53.332;6.514;2023-12-04T14:06:08;5.00;;;2.30;;
82950;SDS011;72737;53.332;6.514;2023-12-04T14:08:34;4.63;;;2.30;;
82950;SDS011;72737;53.332;6.514;2023-12-04T14:11:01;4.90;;;2.40;;
82950;SDS011;72737;53.332;6.514;2023-12-04T14:13:31;5.63;;;2.40;;
82950;SDS011;72737;53.332;6.514;2023-12-04T14:15:58;5.47;;;2.58;;
82950;SDS011;72737;53.332;6.514;2023-12-04T14:18:23;6.18;;;2.60;;
82950;SDS011;72737;53.332;6.514;2023-12-04T14:20:49;5.35;;;2.22;;
82950;SDS011;72737;53.332;6.514;2023-12-04T14:23:14;5.90;;;2.78;;
82950;SDS011;72737;53.332;6.514;2023-12-04T14:25:41;5.10;;;2.38;;
82950;SDS011;72737;53.332;6.514;2023-12-04T14:28:06;5.20;;;2.30;;
82950;SDS011;72737;53.332;6.514;2023-12-04T14:30:32;5.10;;;2.25;;
82950;SDS011;72737;53.332;6.514;2023-12-04T14:32:59;5.22;;;2.28;;
82950;SDS011;72737;53.332;6.514;2023-12-04T14:35:25;4.93;;;2.40;;
82950;SDS011;72737;53.332;6.514;2023-12-04T14:37:50;5.28;;;2.38;;
82950;SDS011;72737;53.332;6.514;2023-12-04T14:40:15;5.25;;;2.35;;
82950;SDS011;72737;53.332;6.514;2023-12-04T14:42:43;5.40;;;2.30;;
82950;SDS011;72737;53.332;6.514;2023-12-04T14:45:09;5.20;;;2.42;;
82950;SDS011;72737;53.332;6.514;2023-12-04T14:47:34;4.70;;;2.28;;
82950;SDS011;72737;53.332;6.514;2023-12-04T14:50:02;4.90;;;2.28;;
82950;SDS011;72737;53.332;6.514;2023-12-04T14:52:27;5.03;;;2.38;;
82950;SDS011;72737;53.332;6.514;2023-12-04T14:54:54;5.95;;;2.72;;
82950;SDS011;72737;53.332;6.514;2023-12-04T14:57:35;4.82;;;2.20;;
82950;SDS011;72737;53.332;6.514;2023-12-04T15:00:06;5.20;;;2.58;;
82950;SDS011;72737;53.332;6.514;2023-12-04T15:02:52;5.75;;;2.60;;
82950;SDS011;72737;53.332;6.514;2023-12-04T15:05:34;5.03;;;2.30;;
82950;SDS011;72737;53.332;6.514;2023-12-04T15:08:18;5.28;;;2.50;;
82950;SDS011;72737;53.332;6.514;2023-12-04T15:10:50;5.25;;;2.45;;
82950;SDS011;72737;53.332;6.514;2023-12-04T15:13:34;5.50;;;2.80;;
82950;SDS011;72737;53.332;6.514;2023-12-04T15:16:10;6.55;;;2.70;;
82950;SDS011;72737;53.332;6.514;2023-12-04T15:18:38;5.32;;;2.55;;
82950;SDS011;72737;53.332;6.514;2023-12-04T15:21:23;5.35;;;2.45;;
82950;SDS011;72737;53.332;6.514;2023-12-04T15:23:49;5.65;;;2.55;;
82950;SDS011;72737;53.332;6.514;2023-12-04T15:26:15;4.88;;;2.47;;
82950;SDS011;72737;53.332;6.514;2023-12-04T15:28:42;5.47;;;2.60;;
82950;SDS011;72737;53.332;6.514;2023-12-04T15:31:07;5.20;;;2.50;;
82950;SDS011;72737;53.332;6.514;2023-12-04T15:33:33;5.35;;;2.50;;
82950;SDS011;72737;53.332;6.514;2023-12-04T15:35:58;5.13;;;2.50;;
82950;SDS011;72737;53.332;6.514;2023-12-04T15:38:24;5.60;;;2.47;;
82950;SDS011;72737;53.332;6.514;2023-12-04T15:40:50;5.40;;;2.53;;
82950;SDS011;72737;53.332;6.514;2023-12-04T15:43:17;5.25;;;2.47;;
82950;SDS011;72737;53.332;6.514;2023-12-04T15:45:42;5.97;;;2.60;;
82950;SDS011;72737;53.332;6.514;2023-12-04T15:48:08;5.10;;;2.38;;
82950;SDS011;72737;53.332;6.514;2023-12-04T15:50:35;5.32;;;2.53;;
82950;SDS011;72737;53.332;6.514;2023-12-04T15:53:00;5.50;;;2.92;;
82950;SDS011;72737;53.332;6.514;2023-12-04T15:55:26;5.72;;;2.60;;
82950;SDS011;72737;53.332;6.514;2023-12-04T15:57:52;4.60;;;2.40;;
82950;SDS011;72737;53.332;6.514;2023-12-04T16:00:20;5.57;;;2.70;;
82950;SDS011;72737;53.332;6.514;2023-12-04T16:02:46;5.55;;;2.55;;
82950;SDS011;72737;53.332;6.514;2023-12-04T16:05:12;5.30;;;2.50;;
82950;SDS011;72737;53.332;6.514;2023-12-04T16:07:38;6.28;;;2.90;;
82950;SDS011;72737;53.332;6.514;2023-12-04T16:10:04;5.15;;;2.50;;
82950;SDS011;72737;53.332;6.514;2023-12-04T16:12:32;5.93;;;3.10;;
82950;SDS011;72737;53.332;6.514;2023-12-04T16:14:57;5.47;;;2.90;;
82950;SDS011;72737;53.332;6.514;2023-12-04T16:17:23;5.20;;;2.85;;
82950;SDS011;72737;53.332;6.514;2023-12-04T16:19:48;5.43;;;2.58;;
82950;SDS011;72737;53.332;6.514;2023-12-04T16:22:14;5.65;;;2.85;;
82950;SDS011;72737;53.332;6.514;2023-12-04T16:24:40;5.45;;;2.90;;
82950;SDS011;72737;53.332;6.514;2023-12-04T16:27:06;5.75;;;2.67;;
82950;SDS011;72737;53.332;6.514;2023-12-04T16:29:31;6.00;;;2.92;;
82950;SDS011;72737;53.332;6.514;2023-12-04T16:34:28;5.72;;;2.97;;
82950;SDS011;72737;53.332;6.514;2023-12-04T16:36:54;5.90;;;3.10;;
82950;SDS011;72737;53.332;6.514;2023-12-04T16:39:19;6.35;;;3.25;;